createdAt,value
2023-03-25T00:01:29.833Z,82.00
2023-03-25T00:03:58.740Z,82.88
2023-03-25T00:06:34.488Z,84.02
2023-03-25T00:09:11.443Z,82.69
2023-03-25T00:11:43.466Z,82.46
2023-03-25T00:14:17.707Z,82.39
2023-03-25T00:16:49.511Z,82.16
2023-03-25T00:19:21.578Z,82.50
2023-03-25T00:21:52.130Z,82.54
2023-03-25T00:24:22.285Z,83.05
2023-03-25T00:26:54.220Z,82.90
2023-03-25T00:29:35.836Z,83.35
2023-03-25T00:32:07.108Z,83.31
2023-03-25T00:34:41.722Z,82.92
2023-03-25T00:37:10.251Z,83.11
2023-03-25T00:39:39.332Z,82.18
2023-03-25T00:42:11.144Z,82.24
2023-03-25T00:44:41.452Z,82.30
2023-03-25T00:47:20.437Z,82.67
2023-03-25T00:49:52.066Z,82.21
2023-03-25T00:52:25.896Z,82.94
2023-03-25T00:54:54.167Z,82.85
2023-03-25T00:57:24.875Z,82.68
2023-03-25T00:59:53.307Z,82.46
2023-03-25T01:02:27.024Z,81.94
2023-03-25T01:05:02.534Z,81.99
2023-03-25T01:07:34.345Z,81.42
2023-03-25T01:10:07.260Z,81.40
2023-03-25T01:12:39.996Z,80.23
2023-03-25T01:15:19.854Z,79.67
2023-03-25T01:17:58.968Z,79.28
2023-03-25T01:20:31.426Z,78.62
2023-03-25T01:23:00.278Z,78.66
2023-03-25T01:25:28.292Z,79.11
2023-03-25T01:27:59.924Z,78.55
2023-03-25T01:30:28.651Z,78.86
2023-03-25T01:32:57.199Z,78.59
2023-03-25T01:35:25.564Z,79.06
2023-03-25T01:37:54.945Z,79.01
2023-03-25T01:40:31.215Z,79.17
2023-03-25T01:43:04.438Z,79.59
2023-03-25T01:45:43.563Z,79.21
2023-03-25T01:48:18.686Z,79.44
2023-03-25T01:50:54.157Z,78.98
2023-03-25T01:53:22.607Z,78.93
2023-03-25T01:55:53.810Z,79.04
2023-03-25T01:58:27.224Z,79.17
2023-03-25T02:00:58.212Z,78.88
2023-03-25T02:03:27.996Z,78.66
2023-03-25T02:06:04.881Z,78.53
2023-03-25T02:08:37.875Z,78.50
2023-03-25T02:11:10.591Z,78.28
2023-03-25T02:13:43.321Z,78.37
2023-03-25T02:16:28.825Z,78.97
2023-03-25T02:19:19.953Z,79.00
2023-03-25T02:22:25.696Z,79.13
2023-03-25T02:25:22.403Z,80.21
2023-03-25T02:28:05.041Z,80.71
2023-03-25T02:30:59.101Z,81.25
2023-03-25T02:33:44.301Z,82.04
2023-03-25T02:37:03.543Z,83.09
2023-03-25T02:39:39.877Z,83.15
2023-03-25T02:42:18.340Z,83.14
2023-03-25T02:44:55.202Z,83.23
2023-03-25T02:47:25.838Z,83.13
2023-03-25T02:49:59.529Z,82.78
2023-03-25T02:52:33.010Z,83.24
2023-03-25T02:55:05.243Z,83.40
2023-03-25T02:57:40.561Z,83.93
2023-03-25T03:00:15.546Z,83.98
2023-03-25T03:02:46.644Z,83.80
2023-03-25T03:05:28.591Z,83.71
2023-03-25T03:08:23.288Z,83.90
2023-03-25T03:11:03.653Z,83.72
2023-03-25T03:13:47.993Z,83.37
2023-03-25T03:16:27.404Z,82.72
2023-03-25T03:19:03.665Z,83.14
2023-03-25T03:21:44.388Z,82.43
2023-03-25T03:24:22.928Z,82.44
2023-03-25T03:26:58.777Z,81.27
2023-03-25T03:29:44.041Z,80.61
2023-03-25T03:32:18.726Z,79.65
2023-03-25T03:34:51.742Z,79.78
2023-03-25T03:37:27.573Z,79.42
2023-03-25T03:39:58.959Z,78.22
2023-03-25T03:42:33.400Z,77.88
2023-03-25T03:45:07.276Z,77.47
2023-03-25T03:47:41.426Z,78.41
2023-03-25T03:50:19.086Z,78.29
2023-03-25T03:53:00.649Z,79.08
2023-03-25T03:55:40.177Z,79.57
2023-03-25T03:58:17.957Z,79.67
2023-03-25T04:00:54.548Z,80.11
2023-03-25T04:03:29.076Z,79.87
2023-03-25T04:06:06.957Z,79.76
2023-03-25T04:08:43.000Z,79.45
2023-03-25T04:11:17.668Z,78.92
2023-03-25T04:13:51.747Z,79.43
2023-03-25T04:16:21.307Z,79.29
2023-03-25T04:18:55.062Z,79.19
2023-03-25T04:21:26.415Z,79.86
2023-03-25T04:23:54.336Z,79.79
2023-03-25T04:26:23.934Z,80.68
2023-03-25T04:28:54.053Z,80.61
2023-03-25T04:31:22.207Z,80.43
2023-03-25T04:33:53.264Z,80.52
2023-03-25T04:36:22.746Z,80.29
2023-03-25T04:38:53.199Z,80.60
2023-03-25T04:41:23.359Z,79.85
2023-03-25T04:43:51.676Z,79.21
2023-03-25T04:46:24.861Z,79.35
2023-03-25T04:48:57.247Z,78.75
2023-03-25T04:51:25.637Z,78.82
2023-03-25T04:53:55.265Z,79.44
2023-03-25T04:56:23.481Z,78.14
2023-03-25T04:58:53.899Z,77.49
2023-03-25T05:01:31.204Z,77.75
2023-03-25T05:04:06.294Z,77.04
2023-03-25T05:06:35.783Z,76.72
2023-03-25T05:09:08.625Z,77.13
2023-03-25T05:11:39.781Z,76.88
2023-03-25T05:14:11.418Z,76.86
2023-03-25T05:16:42.738Z,77.27
2023-03-25T05:19:13.306Z,76.88
2023-03-25T05:21:44.585Z,76.49
2023-03-25T05:24:14.821Z,76.90
2023-03-25T05:26:45.266Z,76.67
2023-03-25T05:29:24.454Z,76.55
2023-03-25T05:31:57.089Z,75.76
2023-03-25T05:34:25.725Z,76.65
2023-03-25T05:36:56.705Z,77.85
2023-03-25T05:39:26.213Z,78.52
2023-03-25T05:41:55.788Z,79.10
2023-03-25T05:44:27.106Z,79.35
2023-03-25T05:47:01.173Z,79.29
2023-03-25T05:49:32.060Z,78.87
2023-03-25T05:52:01.931Z,79.45
2023-03-25T05:54:34.632Z,79.54
2023-03-25T05:57:03.138Z,79.39
2023-03-25T05:59:31.891Z,79.90
2023-03-25T06:02:02.117Z,79.27
2023-03-25T06:04:33.805Z,79.04
2023-03-25T06:07:03.953Z,79.55
2023-03-25T06:09:35.410Z,79.03
2023-03-25T06:12:07.218Z,79.68
2023-03-25T06:14:36.282Z,79.29
2023-03-25T06:17:08.657Z,79.45
2023-03-25T06:19:39.121Z,78.99
2023-03-25T06:22:09.433Z,79.65
2023-03-25T06:24:39.059Z,79.68
2023-03-25T06:27:13.470Z,79.87
2023-03-25T06:29:43.499Z,79.68
2023-03-25T06:32:19.593Z,78.46
2023-03-25T06:34:50.162Z,78.70
2023-03-25T06:37:21.880Z,77.84
2023-03-25T06:39:51.573Z,78.23
2023-03-25T06:42:19.900Z,77.22
2023-03-25T06:44:47.931Z,77.14
2023-03-25T06:47:20.543Z,76.46
2023-03-25T06:49:49.802Z,75.51
2023-03-25T06:52:17.841Z,75.67
2023-03-25T06:54:46.362Z,75.16
2023-03-25T06:57:15.798Z,75.39
2023-03-25T06:59:45.651Z,75.80
2023-03-25T07:02:15.214Z,75.61
2023-03-25T07:04:46.245Z,75.49
2023-03-25T07:07:14.677Z,75.24
2023-03-25T07:09:42.546Z,75.48
2023-03-25T07:12:11.356Z,74.43
2023-03-25T07:14:43.129Z,74.12
2023-03-25T07:17:15.251Z,72.59
2023-03-25T07:19:45.436Z,72.70
2023-03-25T07:22:14.755Z,71.87
2023-03-25T07:24:44.128Z,71.83
2023-03-25T07:27:12.967Z,72.25
2023-03-25T07:29:44.390Z,71.04
2023-03-25T07:32:13.208Z,70.74
2023-03-25T07:34:43.282Z,70.95
2023-03-25T07:37:16.285Z,70.24
2023-03-25T07:39:47.437Z,70.40
2023-03-25T07:42:17.767Z,69.53
2023-03-25T07:44:46.305Z,68.93
2023-03-25T07:47:14.585Z,68.40
2023-03-25T07:49:42.869Z,67.72
2023-03-25T07:52:19.830Z,68.61
2023-03-25T07:54:48.540Z,69.34
2023-03-25T07:57:18.711Z,69.90
2023-03-25T07:59:48.916Z,69.04
2023-03-25T08:02:17.364Z,67.98
2023-03-25T08:04:48.564Z,67.63
2023-03-25T08:07:18.495Z,66.52
2023-03-25T08:09:49.501Z,66.50
2023-03-25T08:12:17.501Z,66.63
2023-03-25T08:14:48.061Z,66.61
2023-03-25T08:17:16.441Z,66.22
2023-03-25T08:19:44.891Z,65.99
2023-03-25T08:22:13.165Z,65.35
2023-03-25T08:24:45.365Z,65.93
2023-03-25T08:27:16.763Z,65.52
2023-03-25T08:29:47.511Z,65.60
2023-03-25T08:32:19.090Z,65.54
2023-03-25T08:34:51.544Z,65.68
2023-03-25T08:37:22.484Z,64.61
2023-03-25T08:39:55.980Z,65.84
2023-03-25T08:42:24.758Z,64.65
2023-03-25T08:44:53.181Z,63.76
2023-03-25T08:47:25.063Z,62.20
2023-03-25T08:49:55.324Z,61.71
2023-03-25T08:52:27.962Z,61.92
2023-03-25T08:54:58.519Z,59.81
2023-03-25T08:57:28.321Z,60.83
2023-03-25T08:59:56.528Z,60.33
2023-03-25T09:02:27.342Z,59.98
2023-03-25T09:04:57.619Z,60.50
2023-03-25T09:07:28.332Z,60.89
2023-03-25T09:10:18.141Z,61.32
2023-03-25T09:12:47.481Z,60.88
2023-03-25T09:15:17.558Z,61.69
2023-03-25T09:17:54.339Z,61.89
2023-03-25T09:20:24.882Z,61.33
2023-03-25T09:22:57.154Z,61.57
2023-03-25T09:25:27.477Z,60.86
2023-03-25T09:28:07.501Z,60.71
2023-03-25T09:30:39.506Z,61.06
2023-03-25T09:33:19.382Z,59.88
2023-03-25T09:35:54.410Z,59.81
2023-03-25T09:38:23.942Z,59.01
2023-03-25T09:41:01.670Z,59.78
2023-03-25T09:43:54.875Z,59.32
2023-03-25T09:46:26.261Z,59.73
2023-03-25T09:49:00.802Z,60.50
2023-03-25T09:51:35.244Z,61.49
2023-03-25T09:54:17.583Z,65.38
2023-03-25T09:57:09.012Z,81.29
2023-03-25T09:59:47.625Z,86.66
2023-03-25T10:02:29.483Z,89.74
2023-03-25T10:05:30.851Z,91.17
2023-03-25T10:08:09.844Z,93.01
2023-03-25T10:21:59.414Z,92.02
2023-03-25T10:24:46.457Z,90.85
2023-03-25T10:27:24.527Z,90.65
2023-03-25T10:30:04.977Z,90.03
2023-03-25T10:32:41.704Z,88.79
2023-03-25T10:35:20.350Z,87.21
2023-03-25T10:37:53.725Z,86.60
2023-03-25T10:40:31.201Z,84.90
2023-03-25T10:43:13.138Z,83.30
2023-03-25T10:45:45.183Z,81.84
2023-03-25T10:48:17.920Z,81.70
2023-03-25T10:50:49.228Z,81.67
2023-03-25T10:53:24.401Z,79.58
2023-03-25T10:55:59.711Z,78.94
2023-03-25T10:58:28.720Z,79.11
2023-03-25T11:00:57.074Z,76.56
2023-03-25T11:03:41.285Z,76.67
2023-03-25T11:06:41.194Z,74.22
2023-03-25T11:09:25.753Z,74.67
2023-03-25T11:11:55.284Z,75.03
2023-03-25T11:14:27.441Z,70.80
2023-03-25T11:16:59.026Z,72.03
2023-03-25T11:19:32.441Z,72.59
2023-03-25T11:22:04.507Z,68.12
2023-03-25T11:24:41.849Z,71.00
2023-03-25T11:27:12.015Z,69.07
2023-03-25T11:29:41.927Z,69.08
2023-03-25T11:32:16.697Z,69.74
2023-03-25T11:34:52.002Z,67.13
2023-03-25T11:37:31.131Z,69.58
2023-03-25T11:40:15.171Z,65.06
2023-03-25T11:42:50.023Z,65.24
2023-03-25T11:45:24.990Z,63.76
2023-03-25T11:47:55.521Z,62.55
2023-03-25T11:50:27.384Z,60.33
2023-03-25T11:52:59.058Z,61.21
2023-03-25T11:55:33.114Z,61.54
2023-03-25T11:58:09.300Z,61.32
2023-03-25T12:00:44.901Z,58.79
2023-03-25T12:03:21.773Z,59.98
2023-03-25T12:06:20.374Z,58.53
2023-03-25T12:08:56.083Z,57.65
2023-03-25T12:11:37.560Z,56.18
2023-03-25T12:14:27.657Z,55.57
2023-03-25T12:17:12.271Z,54.57
2023-03-25T12:19:58.200Z,53.76
2023-03-25T12:22:39.391Z,54.76
2023-03-25T12:25:28.670Z,52.26
2023-03-25T12:28:27.462Z,55.02
2023-03-25T12:31:05.407Z,51.89
2023-03-25T12:33:48.193Z,49.86
2023-03-25T12:36:38.825Z,51.12
2023-03-25T12:39:35.633Z,49.90
2023-03-25T12:42:21.843Z,49.08
2023-03-25T12:45:05.765Z,50.31
2023-03-25T12:47:39.603Z,51.97
2023-03-25T12:50:28.906Z,51.40
2023-03-25T12:53:10.347Z,49.60
2023-03-25T12:55:55.561Z,48.44
2023-03-25T12:58:48.187Z,49.98
2023-03-25T13:01:36.295Z,52.49
2023-03-25T13:04:22.373Z,52.08
2023-03-25T13:07:02.616Z,52.79
2023-03-25T13:09:44.477Z,50.73
2023-03-25T13:12:20.765Z,50.83
2023-03-25T13:14:55.567Z,54.99
2023-03-25T13:17:31.059Z,52.16
2023-03-25T13:20:04.548Z,52.45
2023-03-25T13:22:37.240Z,52.28
2023-03-25T13:25:10.869Z,53.13
2023-03-25T13:27:43.697Z,56.37
2023-03-25T13:30:28.548Z,56.82
2023-03-25T13:33:08.316Z,57.78
2023-03-25T13:35:45.310Z,58.08
2023-03-25T13:38:22.854Z,57.24
2023-03-25T13:41:10.605Z,55.48
2023-03-25T13:47:32.936Z,54.33
2023-03-25T13:50:53.491Z,51.85
2023-03-25T14:01:04.016Z,51.89
2023-03-25T14:04:32.866Z,52.46
2023-03-25T14:07:41.703Z,52.98
2023-03-25T14:22:31.843Z,51.57
2023-03-25T14:25:06.220Z,51.51
2023-03-25T14:27:37.993Z,49.33
2023-03-25T14:30:20.495Z,47.62
2023-03-25T14:32:48.737Z,43.88
2023-03-25T14:35:59.941Z,42.54
2023-03-25T14:39:00.679Z,40.98
2023-03-25T14:42:06.077Z,39.20
2023-03-25T14:44:43.336Z,39.74
2023-03-25T14:47:32.543Z,38.82
2023-03-25T14:50:08.618Z,36.59
2023-03-25T14:52:41.763Z,36.14
2023-03-25T14:55:16.439Z,37.77
2023-03-25T14:57:48.195Z,38.78
2023-03-25T15:00:29.474Z,39.85
2023-03-25T15:03:04.118Z,40.62
2023-03-25T15:05:35.390Z,40.49
2023-03-25T15:08:16.649Z,39.61
2023-03-25T15:10:50.997Z,39.79
2023-03-25T15:13:23.783Z,38.13
2023-03-25T15:16:02.865Z,37.34
2023-03-25T15:19:11.344Z,36.92
2023-03-25T15:22:22.128Z,36.78
2023-03-25T15:25:00.754Z,36.79
2023-03-25T15:27:46.556Z,36.68
2023-03-25T15:30:48.556Z,36.59
2023-03-25T15:33:31.104Z,36.37
2023-03-25T15:36:16.034Z,34.48
2023-03-25T15:39:02.055Z,34.04
2023-03-25T15:41:57.393Z,31.75
2023-03-25T15:45:05.211Z,34.76
2023-03-25T15:47:51.626Z,38.09
2023-03-25T15:50:36.741Z,39.69
2023-03-25T15:53:42.777Z,40.64
2023-03-25T15:56:14.761Z,41.41
2023-03-25T15:58:53.949Z,41.70
2023-03-25T16:01:31.643Z,42.60
2023-03-25T16:04:05.774Z,43.70
2023-03-25T16:06:46.935Z,43.83
2023-03-25T16:09:28.378Z,43.98
2023-03-25T16:12:02.132Z,43.78
2023-03-25T16:14:32.409Z,43.73
2023-03-25T16:17:06.771Z,43.75
2023-03-25T16:19:41.920Z,43.06
2023-03-25T16:22:24.318Z,43.50
2023-03-25T16:24:53.208Z,43.32
2023-03-25T16:27:24.909Z,44.15
2023-03-25T16:29:57.461Z,44.42
2023-03-25T16:32:33.483Z,44.74
2023-03-25T16:35:07.545Z,45.47
2023-03-25T16:37:42.214Z,45.54
2023-03-25T16:40:21.058Z,46.68
2023-03-25T16:42:50.944Z,46.16
2023-03-25T16:45:23.936Z,46.67
2023-03-25T16:47:58.191Z,47.01
2023-03-25T16:50:27.233Z,48.17
2023-03-25T16:53:02.668Z,46.92
2023-03-25T16:55:33.861Z,47.15
2023-03-25T16:58:04.164Z,47.50
2023-03-25T17:00:44.026Z,47.80
2023-03-25T17:03:20.225Z,48.36
2023-03-25T17:05:59.728Z,48.50
2023-03-25T17:08:32.614Z,48.84
2023-03-25T17:11:04.755Z,48.64
2023-03-25T17:13:46.047Z,48.78
2023-03-25T17:16:15.663Z,49.10
2023-03-25T17:18:45.868Z,49.78
2023-03-25T17:21:26.649Z,49.65
2023-03-25T17:23:59.830Z,49.58
2023-03-25T17:26:34.370Z,49.23
2023-03-25T17:29:08.156Z,49.14
2023-03-25T17:31:38.870Z,50.50
2023-03-25T17:34:13.037Z,49.71
2023-03-25T17:36:43.635Z,50.46
2023-03-25T17:39:19.898Z,49.52
2023-03-25T17:42:00.593Z,49.65
2023-03-25T17:44:35.476Z,50.30
2023-03-25T17:47:05.717Z,50.17
2023-03-25T17:49:37.198Z,50.49
2023-03-25T17:52:05.211Z,50.33
2023-03-25T17:54:35.481Z,50.91
2023-03-25T17:57:15.436Z,50.99
2023-03-25T17:59:43.472Z,51.42
2023-03-25T18:02:19.423Z,52.29
2023-03-25T18:04:47.859Z,51.81
2023-03-25T18:07:21.440Z,51.54
2023-03-25T18:09:52.339Z,52.36
2023-03-25T18:12:21.446Z,52.19
2023-03-25T18:14:50.003Z,52.47
2023-03-25T18:17:18.525Z,52.67
2023-03-25T18:19:46.806Z,52.96
2023-03-25T18:24:48.001Z,54.18
2023-03-25T18:27:22.156Z,54.38
2023-03-25T18:29:53.792Z,55.85
2023-03-25T18:32:22.604Z,56.56
2023-03-25T18:34:50.737Z,58.06
2023-03-25T18:37:21.098Z,59.38
2023-03-25T18:39:50.540Z,59.69
2023-03-25T18:42:20.379Z,59.83
2023-03-25T18:44:52.521Z,60.28
2023-03-25T18:47:22.272Z,61.38
2023-03-25T18:49:55.619Z,60.85
2023-03-25T18:52:26.487Z,61.98
2023-03-25T18:54:55.446Z,61.43
2023-03-25T18:57:25.544Z,62.81
2023-03-25T18:59:54.355Z,63.25
2023-03-25T19:02:22.769Z,64.30
2023-03-25T19:05:00.911Z,64.17
2023-03-25T19:07:30.059Z,65.02
2023-03-25T19:09:58.046Z,64.28
2023-03-25T19:12:30.145Z,65.02
2023-03-25T19:14:58.736Z,65.47
2023-03-25T19:17:29.274Z,66.25
2023-03-25T19:19:57.405Z,66.28
2023-03-25T19:22:25.597Z,66.68
2023-03-25T19:24:55.197Z,65.62
2023-03-25T19:27:23.367Z,65.98
2023-03-25T19:29:54.342Z,66.87
2023-03-25T19:32:22.397Z,67.22
2023-03-25T19:34:51.456Z,66.92
2023-03-25T19:37:24.011Z,67.62
2023-03-25T19:39:52.246Z,67.34
2023-03-25T19:42:20.276Z,67.93
2023-03-25T19:44:50.610Z,67.65
2023-03-25T19:47:23.305Z,67.87
2023-03-25T19:49:54.606Z,67.64
2023-03-25T19:52:23.267Z,67.80
2023-03-25T19:54:51.188Z,68.64
2023-03-25T19:57:22.353Z,69.26
2023-03-25T19:59:51.057Z,69.09
2023-03-25T20:02:21.296Z,69.94
2023-03-25T20:04:50.053Z,69.81
2023-03-25T20:07:20.695Z,70.51
2023-03-25T20:09:51.300Z,70.24
2023-03-25T20:12:22.606Z,70.66
2023-03-25T20:14:52.051Z,71.14
2023-03-25T20:17:21.639Z,71.32
2023-03-25T20:19:50.617Z,71.37
2023-03-25T20:22:24.946Z,70.54
2023-03-25T20:24:55.450Z,71.48
2023-03-25T20:27:23.372Z,71.24
2023-03-25T20:29:51.543Z,71.66
2023-03-25T20:32:21.597Z,71.30
2023-03-25T20:34:50.189Z,71.46
2023-03-25T20:37:18.893Z,71.66
2023-03-25T20:39:46.917Z,71.14
2023-03-25T20:42:17.339Z,71.66
2023-03-25T20:44:49.052Z,71.76
2023-03-25T20:47:17.206Z,72.25
2023-03-25T20:49:46.583Z,72.52
2023-03-25T20:52:17.597Z,72.17
2023-03-25T20:54:45.487Z,72.64
2023-03-25T20:57:15.274Z,72.63
2023-03-25T20:59:44.435Z,72.97
2023-03-25T21:02:12.556Z,73.48
2023-03-25T21:04:40.789Z,73.28
2023-03-25T21:07:11.634Z,73.29
2023-03-25T21:09:39.819Z,73.45
2023-03-25T21:12:07.981Z,74.51
2023-03-25T21:14:38.517Z,73.59
2023-03-25T21:17:07.009Z,74.73
2023-03-25T21:19:35.242Z,74.82
2023-03-25T21:22:05.187Z,74.25
2023-03-25T21:24:36.140Z,74.82
2023-03-25T21:27:05.889Z,75.29
2023-03-25T21:29:34.872Z,75.22
2023-03-25T21:32:03.663Z,74.84
2023-03-25T21:34:33.005Z,75.89
2023-03-25T21:37:05.532Z,76.11
2023-03-25T21:39:35.912Z,75.50
2023-03-25T21:42:09.903Z,76.38
2023-03-25T21:44:43.714Z,76.25
2023-03-25T21:47:11.948Z,76.25
2023-03-25T21:49:43.381Z,77.00
2023-03-25T21:52:13.906Z,76.69
2023-03-25T21:54:44.420Z,76.36
2023-03-25T21:57:14.808Z,76.71
2023-03-25T21:59:43.838Z,76.39
2023-03-25T22:02:14.873Z,76.38
2023-03-25T22:04:42.656Z,76.91
2023-03-25T22:07:11.480Z,77.08
2023-03-25T22:09:41.488Z,76.69
2023-03-25T22:12:13.285Z,76.72
2023-03-25T22:14:46.621Z,76.91
2023-03-25T22:17:14.897Z,76.94
2023-03-25T22:19:42.994Z,76.19
2023-03-25T22:22:18.934Z,76.78
2023-03-25T22:24:50.757Z,76.42
2023-03-25T22:27:24.605Z,76.37
2023-03-25T22:29:54.116Z,76.32
2023-03-25T22:32:26.978Z,76.58
2023-03-25T22:34:55.674Z,76.80
2023-03-25T22:37:24.208Z,77.49
2023-03-25T22:39:53.077Z,77.18
2023-03-25T22:42:22.357Z,77.21
2023-03-25T22:44:50.631Z,76.54
2023-03-25T22:47:19.889Z,76.83
2023-03-25T22:49:47.732Z,76.71
2023-03-25T22:52:15.655Z,76.47
2023-03-25T22:54:43.645Z,76.34
2023-03-25T22:57:11.917Z,76.39
2023-03-25T22:59:41.648Z,76.20
2023-03-25T23:02:13.175Z,76.52
2023-03-25T23:04:46.771Z,76.70
2023-03-25T23:07:15.903Z,76.13
2023-03-25T23:09:44.158Z,76.65
2023-03-25T23:12:14.623Z,77.20
2023-03-25T23:14:49.329Z,78.24
2023-03-25T23:17:17.864Z,78.23
2023-03-25T23:19:47.451Z,78.88
2023-03-25T23:22:16.706Z,79.12
2023-03-25T23:24:45.128Z,78.88
2023-03-25T23:27:14.671Z,78.93
2023-03-25T23:29:58.329Z,78.90
2023-03-25T23:32:27.979Z,78.61
2023-03-25T23:35:03.174Z,78.87
2023-03-25T23:37:34.826Z,78.82
2023-03-25T23:40:04.337Z,78.46
2023-03-25T23:42:35.452Z,78.88
2023-03-25T23:45:09.675Z,78.45
2023-03-25T23:47:38.174Z,78.63
2023-03-25T23:50:07.134Z,78.36
2023-03-25T23:52:40.495Z,78.46
2023-03-25T23:55:12.309Z,78.24
2023-03-25T23:57:42.432Z,78.19
